createdAt,value
2023-02-11T00:00:55.725Z,7.60
2023-02-11T00:01:57.681Z,7.50
2023-02-11T00:02:59.580Z,7.50
2023-02-11T00:04:02.410Z,7.60
2023-02-11T00:05:04.600Z,7.50
2023-02-11T00:06:09.453Z,7.60
2023-02-11T00:07:11.252Z,7.60
2023-02-11T00:08:17.021Z,7.60
2023-02-11T00:09:18.942Z,7.50
2023-02-11T00:10:20.886Z,7.50
2023-02-11T00:11:25.548Z,7.50
2023-02-11T00:12:27.346Z,7.50
2023-02-11T00:13:29.185Z,7.50
2023-02-11T00:14:30.953Z,7.50
2023-02-11T00:15:32.680Z,7.50
2023-02-11T00:16:34.840Z,7.50
2023-02-11T00:17:36.613Z,7.50
2023-02-11T00:18:38.927Z,7.50
2023-02-11T00:19:40.734Z,7.50
2023-02-11T00:20:43.399Z,7.50
2023-02-11T00:21:45.242Z,7.50
2023-02-11T00:22:47.072Z,7.50
2023-02-11T00:23:49.437Z,7.50
2023-02-11T00:24:51.275Z,7.50
2023-02-11T00:25:53.500Z,7.50
2023-02-11T00:26:55.294Z,7.50
2023-02-11T00:27:57.123Z,7.50
2023-02-11T00:29:00.850Z,7.50
2023-02-11T00:30:03.114Z,7.50
2023-02-11T00:31:05.865Z,7.50
2023-02-11T00:32:09.006Z,7.50
2023-02-11T00:33:10.855Z,7.50
2023-02-11T00:34:12.737Z,7.50
2023-02-11T00:35:14.773Z,7.50
2023-02-11T00:36:20.094Z,7.50
2023-02-11T00:37:22.652Z,7.50
2023-02-11T00:38:24.542Z,7.50
2023-02-11T00:39:26.636Z,7.50
2023-02-11T00:40:28.408Z,7.50
2023-02-11T00:41:30.589Z,7.50
2023-02-11T00:42:35.658Z,7.50
2023-02-11T00:43:37.706Z,7.50
2023-02-11T00:44:39.484Z,7.50
2023-02-11T00:45:41.236Z,7.50
2023-02-11T00:46:43.158Z,7.50
2023-02-11T00:47:45.622Z,7.50
2023-02-11T00:48:47.482Z,7.50
2023-02-11T00:49:49.408Z,7.50
2023-02-11T00:50:51.266Z,7.50
2023-02-11T00:51:53.522Z,7.40
2023-02-11T00:52:55.325Z,7.40
2023-02-11T00:53:57.149Z,7.50
2023-02-11T00:54:58.949Z,7.50
2023-02-11T00:56:01.251Z,7.50
2023-02-11T00:57:03.287Z,7.50
2023-02-11T00:58:05.076Z,7.50
2023-02-11T00:59:06.957Z,7.50
2023-02-11T01:00:09.896Z,7.50
2023-02-11T01:01:12.654Z,7.50
2023-02-11T01:02:14.596Z,7.50
2023-02-11T01:03:18.052Z,7.50
2023-02-11T01:04:19.881Z,7.40
2023-02-11T01:05:22.221Z,7.40
2023-02-11T01:06:24.173Z,7.40
2023-02-11T01:07:26.922Z,7.40
2023-02-11T01:08:29.884Z,7.40
2023-02-11T01:09:31.746Z,7.40
2023-02-11T01:10:33.790Z,7.40
2023-02-11T01:11:35.721Z,7.40
2023-02-11T01:12:37.799Z,7.40
2023-02-11T01:13:39.946Z,7.40
2023-02-11T01:14:41.683Z,7.40
2023-02-11T01:15:43.547Z,7.40
2023-02-11T01:16:45.431Z,7.40
2023-02-11T01:17:48.491Z,7.40
2023-02-11T01:18:50.330Z,7.40
2023-02-11T01:19:52.810Z,7.40
2023-02-11T01:20:54.971Z,7.40
2023-02-11T01:21:58.365Z,7.40
2023-02-11T01:23:00.219Z,7.30
2023-02-11T01:24:02.090Z,7.30
2023-02-11T01:25:04.067Z,7.30
2023-02-11T01:26:06.090Z,7.40
2023-02-11T01:27:08.019Z,7.40
2023-02-11T01:28:22.292Z,7.40
2023-02-11T01:29:24.427Z,7.40
2023-02-11T01:30:29.595Z,7.40
2023-02-11T01:31:32.001Z,7.40
2023-02-11T01:32:36.386Z,7.40
2023-02-11T01:33:38.470Z,7.40
2023-02-11T01:34:41.268Z,7.40
2023-02-11T01:35:43.735Z,7.40
2023-02-11T01:36:46.085Z,7.40
2023-02-11T01:37:48.008Z,7.40
2023-02-11T01:38:49.994Z,7.40
2023-02-11T01:39:52.714Z,7.30
2023-02-11T01:41:07.072Z,7.30
2023-02-11T01:42:15.728Z,7.30
2023-02-11T01:43:20.419Z,7.30
2023-02-11T01:44:30.282Z,7.30
2023-02-11T01:45:47.356Z,7.30
2023-02-11T01:46:49.440Z,7.30
2023-02-11T01:47:54.220Z,7.30
2023-02-11T01:49:00.290Z,7.30
2023-02-11T01:50:02.683Z,7.30
2023-02-11T01:51:14.533Z,7.30
2023-02-11T01:52:20.080Z,7.30
2023-02-11T01:53:41.098Z,7.30
2023-02-11T01:55:04.803Z,7.30
2023-02-11T01:56:26.662Z,7.20
2023-02-11T01:57:32.671Z,7.20
2023-02-11T01:58:39.268Z,7.20
2023-02-11T01:59:52.544Z,7.20
2023-02-11T02:00:55.456Z,7.20
2023-02-11T02:02:03.559Z,7.20
2023-02-11T02:03:09.805Z,7.20
2023-02-11T02:04:13.244Z,7.20
2023-02-11T02:05:20.884Z,7.20
2023-02-11T02:06:43.311Z,7.20
2023-02-11T02:08:04.650Z,7.20
2023-02-11T02:09:29.558Z,7.20
2023-02-11T02:10:34.262Z,7.20
2023-02-11T02:11:37.176Z,7.20
2023-02-11T02:12:39.062Z,7.20
2023-02-11T02:13:40.908Z,7.10
2023-02-11T02:14:43.033Z,7.10
2023-02-11T02:15:52.028Z,7.10
2023-02-11T02:16:54.243Z,7.10
2023-02-11T02:18:10.621Z,7.10
2023-02-11T02:19:47.055Z,7.10
2023-02-11T02:21:26.725Z,7.10
2023-02-11T02:22:57.857Z,7.10
2023-02-11T02:24:23.113Z,7.00
2023-02-11T02:25:33.425Z,7.10
2023-02-11T02:27:04.174Z,7.10
2023-02-11T02:28:16.084Z,7.00
2023-02-11T02:29:51.794Z,7.00
2023-02-11T02:31:24.210Z,7.00
2023-02-11T02:32:57.395Z,7.00
2023-02-11T02:34:06.629Z,7.00
2023-02-11T02:35:31.778Z,7.00
2023-02-11T02:36:51.505Z,7.00
2023-02-11T02:38:07.146Z,6.90
2023-02-11T02:39:25.298Z,7.00
2023-02-11T02:40:34.877Z,7.00
2023-02-11T02:41:39.026Z,7.00
2023-02-11T02:42:42.805Z,7.00
2023-02-11T02:43:48.447Z,6.90
2023-02-11T02:44:52.101Z,6.90
2023-02-11T02:45:54.586Z,6.90
2023-02-11T02:46:56.780Z,6.90
2023-02-11T02:47:58.689Z,7.00
2023-02-11T02:49:01.101Z,7.00
2023-02-11T02:50:04.780Z,6.90
2023-02-11T02:51:27.673Z,6.90
2023-02-11T02:52:37.318Z,6.90
2023-02-11T02:54:00.305Z,6.90
2023-02-11T02:55:35.775Z,6.90
2023-02-11T02:56:54.250Z,6.90
2023-02-11T02:58:12.510Z,6.90
2023-02-11T02:59:34.345Z,6.90
2023-02-11T03:00:59.103Z,6.80
2023-02-11T03:02:14.143Z,6.80
2023-02-11T03:03:42.318Z,6.80
2023-02-11T03:04:54.203Z,6.80
2023-02-11T03:06:08.021Z,6.80
2023-02-11T03:07:32.956Z,6.80
2023-02-11T03:08:36.948Z,6.80
2023-02-11T03:09:58.363Z,6.80
2023-02-11T03:11:01.451Z,6.80
2023-02-11T03:12:05.878Z,6.80
2023-02-11T03:13:08.438Z,6.80
2023-02-11T03:14:13.267Z,6.80
2023-02-11T03:15:17.532Z,6.90
2023-02-11T03:16:23.438Z,6.80
2023-02-11T03:17:27.893Z,6.90
2023-02-11T03:18:33.750Z,6.90
2023-02-11T03:19:39.716Z,6.90
2023-02-11T03:20:45.529Z,6.90
2023-02-11T03:21:49.304Z,6.90
2023-02-11T03:23:03.074Z,6.90
2023-02-11T03:24:14.104Z,6.90
2023-02-11T03:25:16.370Z,6.90
2023-02-11T03:26:37.022Z,6.90
2023-02-11T03:27:49.026Z,6.90
2023-02-11T03:29:08.508Z,6.90
2023-02-11T03:30:26.349Z,6.90
2023-02-11T03:31:50.864Z,6.80
2023-02-11T03:32:59.434Z,6.80
2023-02-11T03:34:10.221Z,6.80
2023-02-11T03:35:17.194Z,6.80
2023-02-11T03:36:27.904Z,6.80
2023-02-11T03:37:40.877Z,6.80
2023-02-11T03:38:49.982Z,6.80
2023-02-11T03:39:57.591Z,6.80
2023-02-11T03:41:02.195Z,6.70
2023-02-11T03:42:07.225Z,6.80
2023-02-11T03:43:22.936Z,6.80
2023-02-11T03:44:29.876Z,6.80
2023-02-11T03:45:31.947Z,6.80
2023-02-11T03:46:38.102Z,6.70
2023-02-11T03:47:43.539Z,6.70
2023-02-11T03:48:51.358Z,6.70
2023-02-11T03:49:55.508Z,6.80
2023-02-11T03:51:00.159Z,6.70
2023-02-11T03:52:05.705Z,6.80
2023-02-11T03:53:08.888Z,6.70
2023-02-11T03:54:16.556Z,6.80
2023-02-11T03:55:21.019Z,6.80
2023-02-11T03:56:27.487Z,6.80
2023-02-11T03:57:29.427Z,6.70
2023-02-11T03:58:31.261Z,6.70
2023-02-11T03:59:48.944Z,6.70
2023-02-11T04:00:50.808Z,6.70
2023-02-11T04:01:53.036Z,6.70
2023-02-11T04:02:54.812Z,6.70
2023-02-11T04:03:56.814Z,6.70
2023-02-11T04:04:58.672Z,6.70
2023-02-11T04:06:00.439Z,6.70
2023-02-11T04:07:02.160Z,6.70
2023-02-11T04:08:04.221Z,6.70
2023-02-11T04:09:06.372Z,6.70
2023-02-11T04:10:08.936Z,6.70
2023-02-11T04:11:10.773Z,6.70
2023-02-11T04:12:12.690Z,6.60
2023-02-11T04:13:15.173Z,6.60
2023-02-11T04:14:16.951Z,6.70
2023-02-11T04:15:19.293Z,6.70
2023-02-11T04:16:21.278Z,6.60
2023-02-11T04:17:23.172Z,6.70
2023-02-11T04:18:25.082Z,6.70
2023-02-11T04:19:26.902Z,6.70
2023-02-11T04:20:28.924Z,6.70
2023-02-11T04:21:30.727Z,6.70
2023-02-11T04:22:32.664Z,6.70
2023-02-11T04:23:34.541Z,6.70
2023-02-11T04:24:36.546Z,6.70
2023-02-11T04:25:38.274Z,6.60
2023-02-11T04:26:40.082Z,6.60
2023-02-11T04:27:41.889Z,6.60
2023-02-11T04:28:43.683Z,6.60
2023-02-11T04:29:45.498Z,6.60
2023-02-11T04:30:48.991Z,6.60
2023-02-11T04:31:51.136Z,6.60
2023-02-11T04:32:54.284Z,6.60
2023-02-11T04:33:57.221Z,6.60
2023-02-11T04:34:59.164Z,6.60
2023-02-11T04:36:01.099Z,6.60
2023-02-11T04:37:03.044Z,6.60
2023-02-11T04:38:04.919Z,6.60
2023-02-11T04:39:07.186Z,6.60
2023-02-11T04:40:09.796Z,6.60
2023-02-11T04:41:11.760Z,6.60
2023-02-11T04:42:13.584Z,6.60
2023-02-11T04:43:15.372Z,6.60
2023-02-11T04:44:17.176Z,6.50
2023-02-11T04:45:18.908Z,6.60
2023-02-11T04:46:20.786Z,6.60
2023-02-11T04:47:22.600Z,6.60
2023-02-11T04:48:25.011Z,6.60
2023-02-11T04:49:26.814Z,6.60
2023-02-11T04:50:28.844Z,6.50
2023-02-11T04:51:31.490Z,6.50
2023-02-11T04:52:33.350Z,6.60
2023-02-11T04:53:35.190Z,6.60
2023-02-11T04:54:37.095Z,6.60
2023-02-11T04:55:38.815Z,6.60
2023-02-11T04:56:40.802Z,6.60
2023-02-11T04:57:42.729Z,6.60
2023-02-11T04:58:44.501Z,6.50
2023-02-11T04:59:46.248Z,6.60
2023-02-11T05:00:48.272Z,6.60
2023-02-11T05:01:50.301Z,6.60
2023-02-11T05:02:52.137Z,6.60
2023-02-11T05:03:53.964Z,6.60
2023-02-11T05:04:55.776Z,6.60
2023-02-11T05:05:57.958Z,6.60
2023-02-11T05:06:59.761Z,6.60
2023-02-11T05:08:01.567Z,6.60
2023-02-11T05:09:03.513Z,6.60
2023-02-11T05:10:05.646Z,6.60
2023-02-11T05:11:08.598Z,6.60
2023-02-11T05:12:10.333Z,6.60
2023-02-11T05:13:12.109Z,6.60
2023-02-11T05:14:14.063Z,6.60
2023-02-11T05:15:16.041Z,6.60
2023-02-11T05:16:18.566Z,6.60
2023-02-11T05:17:20.405Z,6.60
2023-02-11T05:18:22.664Z,6.60
2023-02-11T05:19:24.553Z,6.60
2023-02-11T05:20:26.310Z,6.60
2023-02-11T05:21:28.256Z,6.60
2023-02-11T05:22:30.482Z,6.60
2023-02-11T05:23:32.243Z,6.60
2023-02-11T05:24:34.549Z,6.60
2023-02-11T05:25:36.856Z,6.70
2023-02-11T05:26:38.648Z,6.70
2023-02-11T05:27:40.428Z,6.70
2023-02-11T05:28:42.692Z,6.60
2023-02-11T05:29:44.502Z,6.70
2023-02-11T05:30:46.314Z,6.60
2023-02-11T05:31:48.162Z,6.70
2023-02-11T05:32:50.642Z,6.60
2023-02-11T05:33:52.437Z,6.70
2023-02-11T05:34:54.269Z,6.70
2023-02-11T05:36:00.435Z,6.70
2023-02-11T05:37:02.315Z,6.70
2023-02-11T05:38:04.133Z,6.70
2023-02-11T05:39:05.924Z,6.70
2023-02-11T05:40:08.090Z,6.70
2023-02-11T05:41:11.394Z,6.70
2023-02-11T05:42:14.167Z,6.70
2023-02-11T05:43:15.911Z,6.70
2023-02-11T05:44:17.778Z,6.70
2023-02-11T05:45:19.548Z,6.70
2023-02-11T05:46:21.486Z,6.70
2023-02-11T05:47:23.362Z,6.70
2023-02-11T05:48:25.199Z,6.70
2023-02-11T05:49:27.105Z,6.80
2023-02-11T05:50:29.019Z,6.70
2023-02-11T05:51:30.814Z,6.70
2023-02-11T05:52:32.692Z,6.80
2023-02-11T05:53:35.071Z,6.80
2023-02-11T05:54:36.828Z,6.80
2023-02-11T05:55:38.780Z,6.80
2023-02-11T05:56:41.681Z,6.80
2023-02-11T05:57:44.384Z,6.80
2023-02-11T05:58:46.108Z,6.80
2023-02-11T05:59:47.895Z,6.80
2023-02-11T06:00:49.673Z,6.70
2023-02-11T06:01:51.708Z,6.70
2023-02-11T06:02:53.681Z,6.80
2023-02-11T06:03:55.597Z,6.70
2023-02-11T06:04:57.581Z,6.80
2023-02-11T06:05:59.466Z,6.80
2023-02-11T06:07:01.556Z,6.80
2023-02-11T06:08:03.516Z,6.80
2023-02-11T06:09:05.355Z,6.80
2023-02-11T06:10:08.028Z,6.80
2023-02-11T06:11:09.837Z,6.80
2023-02-11T06:12:11.857Z,6.80
2023-02-11T06:13:13.788Z,6.80
2023-02-11T06:14:15.832Z,6.80
2023-02-11T06:15:17.600Z,6.80
2023-02-11T06:16:19.499Z,6.80
2023-02-11T06:17:21.250Z,6.80
2023-02-11T06:18:23.143Z,6.80
2023-02-11T06:19:24.954Z,6.80
2023-02-11T06:20:26.900Z,6.80
2023-02-11T06:21:42.486Z,6.80
2023-02-11T06:22:46.065Z,6.80
2023-02-11T06:23:47.935Z,6.80
2023-02-11T06:25:00.713Z,6.80
2023-02-11T06:26:05.411Z,6.90
2023-02-11T06:27:07.273Z,6.80
2023-02-11T06:28:10.556Z,6.90
2023-02-11T06:29:13.085Z,6.90
2023-02-11T06:30:15.046Z,6.90
2023-02-11T06:31:17.552Z,6.90
2023-02-11T06:32:39.431Z,6.90
2023-02-11T06:33:41.940Z,6.90
2023-02-11T06:34:43.849Z,6.90
2023-02-11T06:35:45.676Z,6.90
2023-02-11T06:36:47.572Z,6.90
2023-02-11T06:37:49.728Z,6.90
2023-02-11T06:38:51.755Z,6.90
2023-02-11T06:39:53.611Z,6.90
2023-02-11T06:40:55.856Z,6.90
2023-02-11T06:41:57.741Z,6.90
2023-02-11T06:42:59.502Z,6.90
2023-02-11T06:44:01.560Z,6.90
2023-02-11T06:45:06.064Z,6.90
2023-02-11T06:46:08.205Z,6.90
2023-02-11T06:47:10.066Z,6.90
2023-02-11T06:48:12.010Z,6.90
2023-02-11T06:49:14.088Z,6.90
2023-02-11T06:50:15.965Z,6.90
2023-02-11T06:51:17.866Z,6.90
2023-02-11T06:52:19.710Z,6.90
2023-02-11T06:53:21.539Z,7.00
2023-02-11T06:54:23.309Z,7.00
2023-02-11T06:55:25.275Z,7.00
2023-02-11T06:56:30.347Z,7.00
2023-02-11T06:57:35.144Z,7.00
2023-02-11T06:58:37.864Z,7.00
2023-02-11T06:59:39.707Z,7.00
2023-02-11T07:00:41.449Z,7.00
2023-02-11T07:01:43.894Z,7.00
2023-02-11T07:02:45.871Z,7.00
2023-02-11T07:03:47.804Z,7.00
2023-02-11T07:04:49.994Z,6.90
2023-02-11T07:05:52.236Z,7.00
2023-02-11T07:06:54.307Z,6.90
2023-02-11T07:07:56.238Z,6.90
2023-02-11T07:08:58.114Z,7.00
2023-02-11T07:10:00.070Z,6.90
2023-02-11T07:11:08.388Z,7.00
2023-02-11T07:12:10.758Z,7.00
2023-02-11T07:13:12.490Z,7.00
2023-02-11T07:14:14.344Z,7.00
2023-02-11T07:15:16.155Z,7.00
2023-02-11T07:16:19.342Z,7.00
2023-02-11T07:17:21.172Z,7.00
2023-02-11T07:18:22.956Z,7.00
2023-02-11T07:19:24.789Z,7.00
2023-02-11T07:20:26.724Z,7.00
2023-02-11T07:21:28.689Z,7.00
2023-02-11T07:22:30.537Z,7.00
2023-02-11T07:23:33.123Z,7.00
2023-02-11T07:24:34.964Z,7.00
2023-02-11T07:25:36.720Z,7.00
2023-02-11T07:26:38.611Z,7.00
2023-02-11T07:27:40.488Z,7.10
2023-02-11T07:28:43.073Z,7.10
2023-02-11T07:29:46.975Z,7.10
2023-02-11T07:30:48.924Z,7.10
2023-02-11T07:31:50.757Z,7.10
2023-02-11T07:32:52.686Z,7.10
2023-02-11T07:33:56.516Z,7.10
2023-02-11T07:34:58.420Z,7.10
2023-02-11T07:36:01.368Z,7.10
2023-02-11T07:37:03.358Z,7.10
2023-02-11T07:38:05.075Z,7.10
2023-02-11T07:39:06.949Z,7.10
2023-02-11T07:40:09.610Z,7.10
2023-02-11T07:41:14.680Z,7.10
2023-02-11T07:42:16.604Z,7.10
2023-02-11T07:43:18.578Z,7.10
2023-02-11T07:44:20.435Z,7.10
2023-02-11T07:45:22.268Z,7.20
2023-02-11T07:46:26.659Z,7.20
2023-02-11T07:47:28.751Z,7.20
2023-02-11T07:48:30.631Z,7.20
2023-02-11T07:49:32.504Z,7.20
2023-02-11T07:50:34.334Z,7.20
2023-02-11T07:51:36.203Z,7.20
2023-02-11T07:52:38.011Z,7.20
2023-02-11T07:53:39.909Z,7.20
2023-02-11T07:54:41.738Z,7.20
2023-02-11T07:55:43.998Z,7.20
2023-02-11T07:56:45.933Z,7.20
2023-02-11T07:57:47.814Z,7.20
2023-02-11T07:58:50.455Z,7.20
2023-02-11T07:59:53.475Z,7.20
2023-02-11T08:00:55.670Z,7.30
2023-02-11T08:01:57.577Z,7.30
2023-02-11T08:02:59.401Z,7.30
2023-02-11T08:04:02.745Z,7.30
2023-02-11T08:05:04.674Z,7.30
2023-02-11T08:06:12.284Z,7.30
2023-02-11T08:07:18.103Z,7.30
2023-02-11T08:08:20.008Z,7.30
2023-02-11T08:09:21.906Z,7.30
2023-02-11T08:10:23.898Z,7.30
2023-02-11T08:11:28.209Z,7.30
2023-02-11T08:12:30.618Z,7.30
2023-02-11T08:13:33.597Z,7.30
2023-02-11T08:14:35.514Z,7.30
2023-02-11T08:15:37.569Z,7.30
2023-02-11T08:16:40.113Z,7.30
2023-02-11T08:17:42.102Z,7.30
2023-02-11T08:18:44.007Z,7.30
2023-02-11T08:19:45.923Z,7.30
2023-02-11T08:20:47.937Z,7.30
2023-02-11T08:21:50.060Z,7.30
2023-02-11T08:22:51.979Z,7.30
2023-02-11T08:23:55.408Z,7.30
2023-02-11T08:24:58.443Z,7.30
2023-02-11T08:26:04.347Z,7.30
2023-02-11T08:27:06.184Z,7.40
2023-02-11T08:28:09.208Z,7.30
2023-02-11T08:29:13.801Z,7.40
2023-02-11T08:30:15.657Z,7.40
2023-02-11T08:31:29.382Z,7.40
2023-02-11T08:32:31.276Z,7.40
2023-02-11T08:33:34.225Z,7.40
2023-02-11T08:34:37.922Z,7.40
2023-02-11T08:35:40.598Z,7.40
2023-02-11T08:36:42.964Z,7.50
2023-02-11T08:37:44.747Z,7.50
2023-02-11T08:38:47.281Z,7.50
2023-02-11T08:39:49.100Z,7.50
2023-02-11T08:40:51.074Z,7.50
2023-02-11T08:41:56.537Z,7.50
2023-02-11T08:42:58.480Z,7.50
2023-02-11T08:44:01.032Z,7.50
2023-02-11T08:45:03.336Z,7.50
2023-02-11T08:46:05.823Z,7.60
2023-02-11T08:47:07.645Z,7.50
2023-02-11T08:48:09.538Z,7.50
2023-02-11T08:49:11.586Z,7.50
2023-02-11T08:50:13.342Z,7.50
2023-02-11T08:51:18.559Z,7.50
2023-02-11T08:52:20.404Z,7.60
2023-02-11T08:53:25.221Z,7.60
2023-02-11T08:54:26.982Z,7.60
2023-02-11T08:55:28.745Z,7.60
2023-02-11T08:56:32.379Z,7.60
2023-02-11T08:57:34.217Z,7.60
2023-02-11T08:58:36.397Z,7.70
2023-02-11T08:59:40.105Z,7.70
2023-02-11T09:00:44.033Z,7.70
2023-02-11T09:01:47.332Z,7.70
2023-02-11T09:02:49.229Z,7.70
2023-02-11T09:03:51.532Z,7.80
2023-02-11T09:04:53.334Z,7.80
2023-02-11T09:05:55.362Z,7.80
2023-02-11T09:06:57.600Z,7.80
2023-02-11T09:07:59.313Z,7.90
2023-02-11T09:09:01.356Z,7.90
2023-02-11T09:10:03.576Z,7.90
2023-02-11T09:11:05.979Z,7.90
2023-02-11T09:12:07.930Z,8.00
2023-02-11T09:13:10.134Z,8.00
2023-02-11T09:14:21.352Z,8.00
2023-02-11T09:15:23.236Z,8.00
2023-02-11T09:16:28.081Z,8.00
2023-02-11T09:17:29.942Z,8.10
2023-02-11T09:18:32.093Z,8.10
2023-02-11T09:19:34.005Z,8.10
2023-02-11T09:20:35.899Z,8.10
2023-02-11T09:21:38.166Z,8.10
2023-02-11T09:22:40.044Z,8.10
2023-02-11T09:23:43.737Z,8.20
2023-02-11T09:24:45.659Z,8.20
2023-02-11T09:25:47.512Z,8.20
2023-02-11T09:26:49.704Z,8.20
2023-02-11T09:27:52.363Z,8.20
2023-02-11T09:28:55.017Z,8.20
2023-02-11T09:29:56.820Z,8.30
2023-02-11T09:30:59.011Z,8.30
2023-02-11T09:32:00.917Z,8.30
2023-02-11T09:33:03.270Z,8.30
2023-02-11T09:34:06.904Z,8.30
2023-02-11T09:35:08.899Z,8.40
2023-02-11T09:36:10.821Z,8.40
2023-02-11T09:37:12.584Z,8.40
2023-02-11T09:38:14.384Z,8.40
2023-02-11T09:39:18.726Z,8.50
2023-02-11T09:40:21.277Z,8.50
2023-02-11T09:41:39.194Z,8.50
2023-02-11T09:43:04.274Z,8.50
2023-02-11T09:44:10.649Z,8.50
2023-02-11T09:45:26.166Z,8.50
2023-02-11T09:46:33.164Z,8.50
2023-02-11T09:47:42.826Z,8.50
2023-02-11T09:48:47.907Z,8.50
2023-02-11T09:49:53.941Z,8.50
2023-02-11T09:51:00.982Z,8.50
2023-02-11T09:52:15.202Z,8.50
2023-02-11T09:53:28.420Z,8.60
2023-02-11T09:54:52.876Z,8.60
2023-02-11T09:55:59.743Z,8.60
2023-02-11T09:57:06.272Z,8.60
2023-02-11T09:58:31.900Z,8.60
2023-02-11T09:59:35.362Z,8.60
2023-02-11T10:00:44.158Z,8.60
2023-02-11T10:01:57.789Z,8.60
2023-02-11T10:03:11.691Z,8.60
2023-02-11T10:04:57.831Z,8.60
2023-02-11T10:06:34.360Z,8.70
2023-02-11T10:07:43.937Z,8.70
2023-02-11T10:09:10.531Z,8.70
2023-02-11T10:10:17.852Z,8.70
2023-02-11T10:11:37.538Z,8.70
2023-02-11T10:13:16.261Z,8.70
2023-02-11T10:14:38.694Z,8.70
2023-02-11T10:16:22.271Z,8.70
2023-02-11T10:17:46.456Z,8.80
2023-02-11T10:19:07.420Z,8.80
2023-02-11T10:20:41.817Z,8.90
2023-02-11T10:21:55.288Z,8.90
2023-02-11T10:23:01.324Z,9.00
2023-02-11T10:24:10.036Z,9.00
2023-02-11T10:25:40.479Z,9.10
2023-02-11T10:26:43.800Z,9.10
2023-02-11T10:27:46.019Z,9.10
2023-02-11T10:28:52.549Z,9.20
2023-02-11T10:30:02.844Z,9.30
2023-02-11T10:31:15.810Z,9.40
2023-02-11T10:32:29.125Z,9.40
2023-02-11T10:33:31.644Z,9.50
2023-02-11T10:34:34.678Z,9.50
2023-02-11T10:35:37.864Z,9.60
2023-02-11T10:36:44.197Z,9.60
2023-02-11T10:37:46.215Z,9.70
2023-02-11T10:38:48.000Z,9.70
2023-02-11T10:39:49.727Z,9.80
2023-02-11T10:40:51.971Z,9.80
2023-02-11T10:41:58.462Z,9.80
2023-02-11T10:43:04.610Z,9.90
2023-02-11T10:44:07.599Z,9.90
2023-02-11T10:45:32.739Z,10.00
2023-02-11T10:46:40.320Z,10.00
2023-02-11T10:47:45.042Z,10.10
2023-02-11T10:48:50.485Z,10.10
2023-02-11T10:49:52.399Z,10.10
2023-02-11T10:51:17.499Z,10.10
2023-02-11T10:52:28.058Z,10.10
2023-02-11T10:53:30.099Z,10.10
2023-02-11T10:54:33.239Z,10.10
2023-02-11T10:55:40.036Z,10.10
2023-02-11T10:57:02.227Z,10.20
2023-02-11T10:58:26.658Z,10.20
2023-02-11T10:59:40.310Z,10.20
2023-02-11T11:00:43.730Z,10.20
2023-02-11T11:01:49.162Z,10.20
2023-02-11T11:03:00.371Z,10.30
2023-02-11T11:04:02.374Z,10.30
2023-02-11T11:05:14.907Z,10.30
2023-02-11T11:06:29.177Z,10.40
2023-02-11T11:07:33.803Z,10.50
2023-02-11T11:08:49.355Z,10.50
2023-02-11T11:09:51.300Z,10.50
2023-02-11T11:11:09.351Z,10.60
2023-02-11T11:12:49.720Z,10.70
2023-02-11T11:13:59.134Z,10.80
2023-02-11T11:15:20.625Z,10.90
2023-02-11T11:16:32.934Z,10.90
2023-02-11T11:17:34.944Z,11.10
2023-02-11T11:18:36.941Z,11.10
2023-02-11T11:19:39.362Z,11.20
2023-02-11T11:20:56.424Z,11.30
2023-02-11T11:21:58.347Z,11.40
2023-02-11T11:23:19.743Z,11.40
2023-02-11T11:24:33.609Z,11.40
2023-02-11T11:25:38.623Z,11.40
2023-02-11T11:26:43.634Z,11.40
2023-02-11T11:27:50.575Z,11.40
2023-02-11T11:28:54.282Z,11.40
2023-02-11T11:29:56.978Z,11.40
2023-02-11T11:31:00.356Z,11.40
2023-02-11T11:32:15.318Z,11.50
2023-02-11T11:33:24.878Z,11.50
2023-02-11T11:34:31.337Z,11.50
2023-02-11T11:35:33.205Z,11.60
2023-02-11T11:36:40.390Z,11.60
2023-02-11T11:37:42.333Z,11.70
2023-02-11T11:38:56.020Z,11.70
2023-02-11T11:40:03.500Z,11.70
2023-02-11T11:41:17.714Z,11.70
2023-02-11T11:42:39.281Z,11.70
2023-02-11T11:43:53.848Z,11.70
2023-02-11T11:45:26.812Z,11.70
2023-02-11T11:46:38.213Z,11.70
2023-02-11T11:48:09.156Z,11.70
2023-02-11T11:49:17.611Z,11.70
2023-02-11T11:50:34.582Z,11.80
2023-02-11T11:51:39.326Z,11.80
2023-02-11T11:53:04.494Z,11.80
2023-02-11T11:54:13.399Z,11.90
2023-02-11T11:55:20.873Z,11.80
2023-02-11T11:56:26.805Z,11.80
2023-02-11T11:57:30.880Z,11.80
2023-02-11T11:58:33.933Z,11.80
2023-02-11T11:59:37.238Z,11.80
2023-02-11T12:00:53.061Z,11.90
2023-02-11T12:02:33.614Z,11.90
2023-02-11T12:04:13.205Z,11.80
2023-02-11T12:05:26.956Z,11.90
2023-02-11T12:06:56.556Z,11.90
2023-02-11T12:08:24.310Z,11.90
2023-02-11T12:09:26.702Z,11.80
2023-02-11T12:10:47.194Z,11.90
2023-02-11T12:12:32.272Z,11.90
2023-02-11T12:14:03.007Z,11.90
2023-02-11T12:15:24.535Z,11.80
2023-02-11T12:16:57.135Z,11.80
2023-02-11T12:18:22.273Z,11.80
2023-02-11T12:19:42.628Z,11.80
2023-02-11T12:21:05.581Z,11.70
2023-02-11T12:22:30.601Z,11.60
2023-02-11T12:23:52.764Z,11.60
2023-02-11T12:25:01.088Z,11.60
2023-02-11T12:26:19.788Z,11.60
2023-02-11T12:27:56.296Z,11.50
2023-02-11T12:29:33.780Z,11.50
2023-02-11T12:30:47.405Z,11.40
2023-02-11T12:32:15.290Z,11.40
2023-02-11T12:33:29.795Z,11.40
2023-02-11T12:35:09.557Z,11.40
2023-02-11T12:36:44.461Z,11.40
2023-02-11T12:38:15.953Z,11.40
2023-02-11T12:39:26.907Z,11.30
2023-02-11T12:40:51.980Z,11.30
2023-02-11T12:42:37.839Z,11.40
2023-02-11T12:43:42.595Z,11.40
2023-02-11T12:45:04.496Z,11.40
2023-02-11T12:46:41.586Z,11.40
2023-02-11T12:48:09.476Z,11.40
2023-02-11T12:49:38.913Z,11.40
2023-02-11T12:51:09.392Z,11.40
2023-02-11T12:52:22.690Z,11.40
2023-02-11T12:53:43.253Z,11.40
2023-02-11T12:54:54.975Z,11.50
2023-02-11T12:56:05.024Z,11.50
2023-02-11T12:57:23.299Z,11.60
2023-02-11T12:58:44.200Z,11.60
2023-02-11T12:59:59.080Z,11.60
2023-02-11T13:01:21.859Z,11.60
2023-02-11T13:02:41.455Z,11.70
2023-02-11T13:04:20.092Z,11.70
2023-02-11T13:05:37.618Z,11.60
2023-02-11T13:06:46.136Z,11.60
2023-02-11T13:07:50.565Z,11.60
2023-02-11T13:09:01.278Z,11.60
2023-02-11T13:10:36.154Z,11.50
2023-02-11T13:11:42.669Z,11.50
2023-02-11T13:13:07.081Z,11.50
2023-02-11T13:14:27.053Z,11.60
2023-02-11T13:15:30.367Z,11.60
2023-02-11T13:16:40.742Z,11.60
2023-02-11T13:18:01.288Z,11.60
2023-02-11T13:19:34.523Z,11.60
2023-02-11T13:20:57.034Z,11.60
2023-02-11T13:22:27.513Z,11.60
2023-02-11T13:23:47.258Z,11.60
2023-02-11T13:25:16.130Z,11.60
2023-02-11T13:26:31.894Z,11.60
2023-02-11T13:27:45.672Z,11.50
2023-02-11T13:29:08.905Z,11.50
2023-02-11T13:30:30.723Z,11.60
2023-02-11T13:31:33.017Z,11.50
2023-02-11T13:32:53.807Z,11.60
2023-02-11T13:33:55.635Z,11.60
2023-02-11T13:34:59.159Z,11.60
2023-02-11T13:36:04.134Z,11.60
2023-02-11T13:37:12.875Z,11.60
2023-02-11T13:38:17.645Z,11.70
2023-02-11T13:39:23.343Z,11.70
2023-02-11T13:40:35.511Z,11.70
2023-02-11T13:41:41.572Z,11.70
2023-02-11T13:42:52.447Z,11.80
2023-02-11T13:44:01.832Z,11.80
2023-02-11T13:45:37.107Z,11.80
2023-02-11T13:46:50.941Z,11.80
2023-02-11T13:48:01.681Z,11.80
2023-02-11T13:49:03.518Z,11.80
2023-02-11T13:50:08.324Z,11.90
2023-02-11T13:51:13.522Z,11.90
2023-02-11T13:52:31.079Z,11.90
2023-02-11T13:53:51.686Z,11.90
2023-02-11T13:54:56.817Z,11.90
2023-02-11T13:56:30.576Z,11.90
2023-02-11T13:57:35.437Z,11.90
2023-02-11T13:58:47.870Z,11.90
2023-02-11T13:59:53.934Z,11.90
2023-02-11T14:00:56.985Z,11.90
2023-02-11T14:02:39.409Z,11.90
2023-02-11T14:04:39.485Z,11.90
2023-02-11T14:06:29.152Z,11.90
2023-02-11T14:07:53.747Z,11.90
2023-02-11T14:09:21.743Z,11.90
2023-02-11T14:10:55.118Z,11.90
2023-02-11T14:12:23.478Z,11.90
2023-02-11T14:13:31.341Z,11.90
2023-02-11T14:14:34.959Z,11.90
2023-02-11T14:15:40.555Z,11.90
2023-02-11T14:17:03.362Z,11.90
2023-02-11T14:18:48.848Z,11.90
2023-02-11T14:19:51.180Z,11.90
2023-02-11T14:21:22.031Z,11.80
2023-02-11T14:22:47.028Z,11.80
2023-02-11T14:23:53.350Z,11.80
2023-02-11T14:24:58.892Z,11.80
2023-02-11T14:26:23.325Z,11.80
2023-02-11T14:27:30.564Z,11.80
2023-02-11T14:28:34.385Z,11.80
2023-02-11T14:29:43.982Z,11.80
2023-02-11T14:30:53.000Z,11.80
2023-02-11T14:32:15.420Z,11.80
2023-02-11T14:33:50.631Z,11.80
2023-02-11T14:35:04.357Z,11.80
2023-02-11T14:36:06.212Z,11.80
2023-02-11T14:37:33.202Z,11.70
2023-02-11T14:39:00.195Z,11.80
2023-02-11T14:40:21.527Z,11.80
2023-02-11T14:41:25.357Z,11.70
2023-02-11T14:42:29.360Z,11.70
2023-02-11T14:43:41.918Z,11.70
2023-02-11T14:44:43.833Z,11.70
2023-02-11T14:45:50.738Z,11.70
2023-02-11T14:46:53.969Z,11.70
2023-02-11T14:48:04.672Z,11.70
2023-02-11T14:49:08.070Z,11.70
2023-02-11T14:50:19.422Z,11.70
2023-02-11T14:51:27.565Z,11.70
2023-02-11T14:52:31.960Z,11.70
2023-02-11T14:53:35.062Z,11.70
2023-02-11T14:54:37.061Z,11.70
2023-02-11T14:55:42.926Z,11.60
2023-02-11T14:56:46.777Z,11.60